Time;durP1;ratioP1;P1;durP2;ratioP2;P2;SDS_P1;SDS_P2;PMS_P1;PMS_P2;Temp;Humidity;BMP_temperature;BMP_pressure;BME280_temperature;BME280_humidity;BME280_pressure;Samples;Min_cycle;Max_cycle;Signal;HPM_P1;HPM_P2
2022/01/22 00:01:11;;;;;;;2.90;1.10;;;24.10;62.80;;;;;;4160571;28;20047;-80
2022/01/22 00:03:34;;;;;;;2.33;0.85;;;24.10;62.90;;;;;;4157011;28;20043;-72
2022/01/22 00:05:56;;;;;;;4.28;1.23;;;24.10;63.00;;;;;;4158137;28;20526;-77
2022/01/22 00:08:19;;;;;;;3.35;1.00;;;24.10;62.90;;;;;;4170545;28;20094;-74
2022/01/22 00:10:44;;;;;;;2.83;1.00;;;24.10;63.10;;;;;;4168580;28;20064;-75
2022/01/22 00:15:42;;;;;;;2.80;0.80;;;24.10;62.90;;;;;;4152473;28;20050;-75
2022/01/22 00:18:04;;;;;;;3.70;1.10;;;24.10;62.70;;;;;;4150506;28;20056;-72
2022/01/22 00:20:29;;;;;;;4.45;0.90;;;24.10;62.60;;;;;;4150791;28;20046;-71
2022/01/22 00:22:52;;;;;;;2.08;0.88;;;24.10;62.90;;;;;;4156501;28;20142;-71
2022/01/22 00:25:16;;;;;;;4.75;1.33;;;24.10;61.80;;;;;;4156387;28;20419;-74
2022/01/22 00:27:40;;;;;;;4.80;1.13;;;24.10;62.10;;;;;;4153604;28;20107;-71
2022/01/22 00:30:03;;;;;;;;;;;24.10;62.60;;;;;;4150621;28;20065;-73
2022/01/22 00:32:26;;;;;;;5.70;1.67;;;24.10;62.70;;;;;;4154390;28;19909;-73
2022/01/22 00:34:48;;;;;;;8.35;1.65;;;24.10;62.60;;;;;;4142657;28;20129;-72
2022/01/22 00:37:16;;;;;;;13.90;1.92;;;24.10;62.30;;;;;;4152393;28;20459;-72
2022/01/22 00:39:38;;;;;;;7.60;1.52;;;24.20;62.60;;;;;;4154933;28;20041;-72
2022/01/22 00:42:02;;;;;;;9.27;1.83;;;24.20;62.40;;;;;;4149621;28;20033;-71
2022/01/22 00:44:25;;;;;;;7.03;1.85;;;24.20;63.30;;;;;;4152667;28;20055;-70
2022/01/22 00:46:48;;;;;;;6.28;1.95;;;24.20;62.20;;;;;;4155188;28;20102;-70
2022/01/22 00:49:10;;;;;;;6.82;2.08;;;24.20;61.80;;;;;;4153071;28;20431;-72
2022/01/22 00:51:33;;;;;;;7.95;1.95;;;24.20;62.40;;;;;;4153196;28;20500;-69
2022/01/22 00:53:55;;;;;;;7.35;2.03;;;24.30;61.70;;;;;;4145018;28;20046;-73
2022/01/22 00:56:18;;;;;;;9.05;2.22;;;24.30;61.50;;;;;;4151101;28;20076;-71
2022/01/22 00:58:41;;;;;;;9.60;2.22;;;24.30;60.90;;;;;;4155253;28;20538;-71
2022/01/22 01:01:05;;;;;;;11.30;3.60;;;24.40;61.40;;;;;;4155985;28;20727;-72
2022/01/22 01:03:31;;;;;;;8.73;3.85;;;24.40;61.50;;;;;;4155505;28;20030;-74
2022/01/22 01:05:54;;;;;;;12.13;6.07;;;24.40;61.70;;;;;;4151291;28;20082;-77
2022/01/22 01:08:16;;;;;;;11.40;6.65;;;24.40;61.50;;;;;;4152723;28;20152;-74
2022/01/22 01:10:42;;;;;;;17.95;9.25;;;24.40;61.60;;;;;;4154631;28;20160;-82
2022/01/22 01:13:14;;;;;;;15.63;9.68;;;24.40;62.00;;;;;;4152454;28;20049;-75
2022/01/22 01:33:59;;;;;;;15.35;9.00;;;24.70;59.70;;;;;;4154541;28;20030;-85
2022/01/22 01:36:31;;;;;;;13.40;7.70;;;24.70;58.90;;;;;;4136422;28;20096;-82
2022/01/22 01:39:00;;;;;;;17.50;9.27;;;24.70;58.10;;;;;;4156905;28;20713;-80
2022/01/22 01:42:08;;;;;;;20.17;13.07;;;24.70;58.20;;;;;;4154658;28;20116;-79
2022/01/22 01:44:08;;;;;;;13.48;8.98;;;24.70;58.60;;;;;;4157465;28;20041;-79
2022/01/22 01:46:32;;;;;;;13.05;7.10;;;24.80;57.50;;;;;;4155747;28;20065;-82
2022/01/22 01:48:55;;;;;;;8.82;4.88;;;24.80;57.30;;;;;;4149367;28;20041;-79
2022/01/22 01:51:17;;;;;;;11.13;5.95;;;24.80;56.10;;;;;;4158079;28;20044;-77
2022/01/22 01:57:25;;;;;;;10.48;5.55;;;24.80;57.20;;;;;;4157794;28;20529;-80
2022/01/22 01:58:47;;;;;;;10.88;6.07;;;24.80;57.60;;;;;;4152046;28;20438;-78
2022/01/22 02:01:09;;;;;;;10.82;6.72;;;24.80;57.40;;;;;;4153240;28;20056;-78
2022/01/22 02:03:35;;;;;;;11.48;7.10;;;24.80;57.90;;;;;;4157197;28;20055;-75
2022/01/22 02:05:57;;;;;;;11.65;7.50;;;24.80;58.00;;;;;;4156877;28;20045;-74
2022/01/22 02:08:20;;;;;;;9.90;5.95;;;24.80;58.70;;;;;;4151666;28;20156;-75
2022/01/22 02:10:55;;;;;;;11.57;4.63;;;24.80;58.20;;;;;;4151198;28;20688;-77
2022/01/22 02:24:50;;;;;;;7.88;4.15;;;24.80;59.20;;;;;;4144847;28;20056;-77
2022/01/22 02:27:14;;;;;;;7.43;3.45;;;24.80;59.10;;;;;;4139747;28;20045;-78
2022/01/22 02:29:37;;;;;;;6.75;3.45;;;24.90;59.30;;;;;;4154119;28;20775;-80
2022/01/22 02:32:34;;;;;;;6.70;2.70;;;24.90;59.10;;;;;;4152310;28;20099;-78
2022/01/22 02:35:12;;;;;;;11.02;3.63;;;24.90;59.00;;;;;;4153849;28;20158;-79
2022/01/22 02:37:38;;;;;;;5.25;2.60;;;25.00;59.80;;;;;;4153544;28;20169;-73
2022/01/22 02:40:15;;;;;;;9.05;3.03;;;25.00;59.40;;;;;;4154890;28;20113;-73
2022/01/22 02:42:43;;;;;;;6.82;2.90;;;25.10;59.50;;;;;;4159317;28;20033;-76
2022/01/22 02:45:10;;;;;;;5.40;2.60;;;25.10;59.50;;;;;;4157679;28;20042;-75
2022/01/22 02:47:33;;;;;;;7.68;3.10;;;25.10;59.30;;;;;;4158228;28;20132;-79
2022/01/22 02:49:55;;;;;;;13.13;2.90;;;25.10;59.60;;;;;;4150113;28;20511;-74
2022/01/22 02:52:18;;;;;;;7.03;3.00;;;25.20;59.30;;;;;;4149722;28;20531;-74
2022/01/22 02:54:50;;;;;;;6.85;2.55;;;25.20;59.20;;;;;;4146702;28;20159;-74
2022/01/22 02:57:13;;;;;;;7.13;2.30;;;25.20;59.20;;;;;;4155885;28;21332;-73
2022/01/22 02:59:35;;;;;;;7.85;2.30;;;25.30;59.20;;;;;;4153927;28;20053;-75
2022/01/22 03:01:59;;;;;;;4.85;1.85;;;25.30;58.80;;;;;;4143871;28;20777;-75
2022/01/22 03:04:22;;;;;;;5.28;2.05;;;25.30;58.60;;;;;;4154357;28;20034;-78
2022/01/22 03:06:49;;;;;;;6.13;2.00;;;25.30;58.40;;;;;;4154141;28;20033;-76
2022/01/22 03:09:13;;;;;;;4.68;1.98;;;25.30;58.50;;;;;;4153279;28;20045;-75
2022/01/22 03:11:45;;;;;;;5.10;2.00;;;25.40;58.70;;;;;;4153053;28;20087;-77
2022/01/22 03:16:59;;;;;;;5.40;2.03;;;25.40;58.80;;;;;;4154121;28;20068;-78
2022/01/22 03:19:53;;;;;;;6.88;2.30;;;25.40;59.00;;;;;;4154828;28;20065;-77
2022/01/22 03:22:25;;;;;;;17.77;2.70;;;25.40;58.90;;;;;;4157518;28;20037;-78
2022/01/22 03:27:31;;;;;;;6.20;2.13;;;25.50;58.30;;;;;;4152622;28;20034;-79
2022/01/22 03:29:53;;;;;;;4.03;1.77;;;25.50;58.30;;;;;;4155457;28;20112;-78
2022/01/22 03:32:15;;;;;;;4.70;1.42;;;25.50;58.00;;;;;;4151203;28;20081;-79
2022/01/22 03:34:53;;;;;;;5.88;1.70;;;25.50;58.00;;;;;;4153590;28;20119;-78
2022/01/22 03:37:16;;;;;;;4.88;1.63;;;25.60;58.50;;;;;;4160005;28;20042;-82
2022/01/22 03:39:38;;;;;;;3.75;1.52;;;25.60;58.10;;;;;;4159739;28;20123;-78
2022/01/22 03:42:04;;;;;;;2.53;1.20;;;25.60;58.50;;;;;;4151962;28;20124;-76
2022/01/22 03:44:27;;;;;;;5.10;1.73;;;25.60;57.80;;;;;;4158940;28;20037;-79
2022/01/22 03:46:49;;;;;;;2.50;1.13;;;25.60;58.00;;;;;;4150074;28;20068;-75
2022/01/22 03:49:13;;;;;;;5.07;1.85;;;25.70;58.00;;;;;;4150751;28;20125;-75
2022/01/22 03:51:35;;;;;;;3.60;1.60;;;25.70;58.10;;;;;;4157001;28;20048;-72
2022/01/22 03:53:58;;;;;;;2.65;1.15;;;25.70;58.00;;;;;;4156822;28;20065;-75
2022/01/22 03:56:23;;;;;;;4.78;1.42;;;25.70;57.70;;;;;;4155516;28;20049;-74
2022/01/22 03:58:49;;;;;;;3.67;1.75;;;25.70;57.40;;;;;;4141773;28;20034;-73
2022/01/22 04:04:00;;;;;;;2.75;1.17;;;25.80;57.80;;;;;;4153927;28;20045;-75
2022/01/22 04:08:46;;;;;;;3.42;1.33;;;25.80;57.60;;;;;;4155229;28;20515;-73
2022/01/22 04:11:13;;;;;;;5.13;1.40;;;25.90;57.80;;;;;;4144465;28;20712;-71
2022/01/22 04:13:36;;;;;;;4.75;1.02;;;25.90;57.80;;;;;;4158423;28;20089;-73
2022/01/22 04:15:59;;;;;;;3.17;1.43;;;25.90;57.80;;;;;;4158307;28;20469;-75
2022/01/22 04:28:51;;;;;;;3.75;1.15;;;26.10;57.20;;;;;;4156669;28;20196;-76
2022/01/22 04:31:14;;;;;;;2.60;1.20;;;26.10;56.50;;;;;;4159596;28;20045;-73
2022/01/22 04:33:36;;;;;;;3.10;0.93;;;26.20;56.30;;;;;;4158772;28;20416;-75
2022/01/22 04:35:59;;;;;;;4.10;1.15;;;26.20;56.20;;;;;;4157692;28;20057;-74
2022/01/22 04:38:21;;;;;;;2.42;1.00;;;26.20;56.40;;;;;;4159460;28;20038;-79
2022/01/22 04:40:44;;;;;;;3.27;1.20;;;26.30;56.60;;;;;;4148287;28;20037;-75
2022/01/22 04:43:07;;;;;;;4.28;1.20;;;26.30;56.50;;;;;;4155513;28;20034;-78
2022/01/22 04:48:23;;;;;;;5.88;1.23;;;26.40;56.90;;;;;;4152748;28;20107;-81
2022/01/22 04:56:08;;;;;;;3.65;1.20;;;26.50;57.00;;;;;;4160709;28;20060;-81
2022/01/22 04:58:31;;;;;;;3.25;1.10;;;26.50;55.90;;;;;;4159750;28;20520;-80
2022/01/22 05:00:54;;;;;;;3.20;1.10;;;26.60;55.80;;;;;;4153956;28;20037;-79
2022/01/22 05:03:23;;;;;;;2.88;1.00;;;26.60;55.40;;;;;;4154132;28;20049;-78
2022/01/22 05:05:45;;;;;;;3.17;0.77;;;26.60;55.50;;;;;;4161565;28;20674;-81
2022/01/22 05:08:08;;;;;;;3.40;1.08;;;26.60;55.30;;;;;;4159080;28;20046;-80
2022/01/22 05:10:31;;;;;;;2.92;0.98;;;26.60;55.20;;;;;;4153928;28;20368;-84
2022/01/22 05:12:53;;;;;;;2.53;1.00;;;26.60;55.00;;;;;;4166535;28;20038;-78
2022/01/22 05:15:17;;;;;;;3.45;0.95;;;26.60;55.00;;;;;;4172093;28;20049;-78
2022/01/22 05:17:42;;;;;;;2.72;1.02;;;26.60;55.10;;;;;;4170851;28;20025;-85
2022/01/22 05:22:56;;;;;;;2.83;0.93;;;26.70;55.00;;;;;;4160578;28;20243;-80
2022/01/22 05:25:31;;;;;;;4.90;1.20;;;26.70;54.80;;;;;;4161625;28;20034;-78
2022/01/22 05:28:08;;;;;;;4.13;1.05;;;26.80;54.60;;;;;;4145652;28;20048;-82
2022/01/22 05:30:53;;;;;;;1.73;0.70;;;26.90;54.70;;;;;;4155218;28;20029;-79
2022/01/22 05:33:33;;;;;;;4.15;1.10;;;26.90;54.50;;;;;;4160260;28;20033;-78
2022/01/22 05:38:44;;;;;;;2.90;0.98;;;27.00;53.60;;;;;;4152518;28;20049;-81
2022/01/22 05:41:06;;;;;;;3.97;1.08;;;26.90;52.90;;;;;;4145716;28;20053;-81
2022/01/22 05:43:29;;;;;;;3.08;1.05;;;26.90;54.00;;;;;;4157491;28;20038;-80
2022/01/22 05:45:55;;;;;;;4.22;1.08;;;27.00;53.40;;;;;;4159906;28;20033;-83
2022/01/22 05:48:21;;;;;;;3.75;1.10;;;27.00;54.00;;;;;;4156884;28;20104;-78
2022/01/22 05:50:53;;;;;;;5.15;1.20;;;27.00;53.50;;;;;;4150533;28;20033;-83
2022/01/22 06:01:00;;;;;;;4.72;0.98;;;27.20;52.00;;;;;;4156260;28;20033;-75
2022/01/22 06:03:23;;;;;;;2.38;0.93;;;27.30;52.70;;;;;;4157491;28;20033;-74
2022/01/22 06:05:46;;;;;;;3.63;0.90;;;27.30;52.90;;;;;;4145554;28;20030;-76
2022/01/22 06:08:10;;;;;;;9.02;1.15;;;27.40;52.80;;;;;;4151403;28;20401;-78
2022/01/22 06:10:34;;;;;;;5.57;1.13;;;27.50;52.80;;;;;;4159095;28;20076;-76
2022/01/22 06:13:10;;;;;;;4.53;1.20;;;27.60;53.00;;;;;;4151446;28;20043;-73
2022/01/22 06:15:32;;;;;;;2.47;0.85;;;27.70;52.90;;;;;;4154816;28;20411;-78
2022/01/22 06:17:55;;;;;;;5.00;1.55;;;27.80;52.80;;;;;;4156692;28;20044;-76
2022/01/22 06:20:17;;;;;;;8.75;1.60;;;27.80;52.20;;;;;;4148889;28;20049;-73
2022/01/22 06:22:42;;;;;;;2.80;1.08;;;27.80;50.80;;;;;;4152457;28;20041;-75
2022/01/22 06:25:05;;;;;;;4.40;1.10;;;27.80;50.40;;;;;;4154685;28;20044;-75
2022/01/22 06:27:27;;;;;;;2.33;0.97;;;27.80;51.40;;;;;;4152310;28;20038;-77
2022/01/22 06:29:50;;;;;;;1.55;0.90;;;27.80;51.50;;;;;;4156317;28;20033;-80
2022/01/22 06:32:12;;;;;;;4.22;1.20;;;27.90;50.90;;;;;;4159387;28;20175;-75
2022/01/22 06:34:35;;;;;;;3.83;1.00;;;27.90;51.70;;;;;;4154789;28;20083;-73
2022/01/22 06:36:57;;;;;;;4.40;1.20;;;28.00;50.80;;;;;;4155843;28;20041;-74
2022/01/22 06:39:21;;;;;;;3.67;0.85;;;28.00;51.20;;;;;;4156198;28;20041;-71
2022/01/22 06:41:46;;;;;;;;;;;28.00;52.20;;;;;;4153329;28;20034;-73
2022/01/22 06:44:10;;;;;;;1.52;0.70;;;27.90;52.70;;;;;;4154750;28;19974;-75
2022/01/22 06:46:33;;;;;;;2.92;1.08;;;28.00;53.20;;;;;;4153925;28;20040;-75
2022/01/22 06:48:55;;;;;;;2.47;0.77;;;28.10;53.40;;;;;;4157214;28;20624;-74
2022/01/22 06:51:22;;;;;;;6.25;0.95;;;28.10;53.20;;;;;;4159507;28;20101;-77
2022/01/22 06:53:45;;;;;;;3.08;1.20;;;28.10;53.30;;;;;;4152929;28;20448;-75
2022/01/22 06:56:10;;;;;;;4.20;1.00;;;28.10;53.30;;;;;;4153405;28;20112;-76
2022/01/22 06:58:32;;;;;;;2.42;0.88;;;28.20;53.40;;;;;;4151124;28;20123;-75
2022/01/22 07:00:55;;;;;;;3.10;0.90;;;28.20;53.40;;;;;;4154376;28;20041;-79
2022/01/22 07:03:17;;;;;;;2.90;0.53;;;28.20;53.50;;;;;;4155778;28;20034;-76
2022/01/22 07:05:40;;;;;;;0.90;0.60;;;28.20;53.50;;;;;;4152968;28;20080;-70
2022/01/22 07:08:02;;;;;;;4.68;0.70;;;28.20;53.50;;;;;;4155365;28;20091;-72
2022/01/22 07:10:25;;;;;;;6.18;0.70;;;28.20;53.50;;;;;;4157069;28;20106;-71
2022/01/22 07:12:48;;;;;;;4.70;0.70;;;28.20;53.50;;;;;;4153708;28;20029;-70
2022/01/22 07:15:10;;;;;;;1.10;0.57;;;28.20;53.60;;;;;;4152548;28;20432;-70
2022/01/22 07:17:36;;;;;;;2.35;0.65;;;28.30;53.60;;;;;;4157962;28;20076;-71
2022/01/22 07:19:58;;;;;;;1.48;0.47;;;28.30;53.60;;;;;;4153192;28;20046;-72
2022/01/22 07:22:35;;;;;;;1.10;0.50;;;28.20;53.60;;;;;;4153491;28;20064;-71
2022/01/22 07:24:57;;;;;;;1.23;0.45;;;28.30;53.70;;;;;;4154129;28;20194;-73
2022/01/22 07:27:20;;;;;;;2.50;0.50;;;28.30;53.70;;;;;;4152132;28;20047;-72
2022/01/22 07:29:43;;;;;;;2.50;0.70;;;28.30;53.80;;;;;;4154743;28;20045;-70
2022/01/22 07:32:11;;;;;;;1.33;0.73;;;28.20;53.70;;;;;;4149724;28;20064;-72
2022/01/22 07:34:33;;;;;;;3.50;0.70;;;28.20;53.70;;;;;;4153939;28;20056;-72
2022/01/22 07:36:56;;;;;;;1.23;0.45;;;28.20;53.70;;;;;;4159152;28;20037;-73
2022/01/22 07:39:19;;;;;;;2.72;0.70;;;28.20;53.70;;;;;;4155765;28;20402;-74
2022/01/22 07:41:41;;;;;;;5.05;0.90;;;28.20;53.80;;;;;;4147487;28;21164;-69
2022/01/22 07:44:04;;;;;;;1.15;0.68;;;28.20;54.50;;;;;;4153278;28;20127;-71
2022/01/22 07:46:27;;;;;;;1.88;0.50;;;28.20;54.60;;;;;;4152461;28;20454;-71
2022/01/22 07:48:50;;;;;;;1.40;0.65;;;28.20;54.80;;;;;;4144904;28;20057;-71
2022/01/22 07:51:12;;;;;;;1.48;0.35;;;28.20;54.90;;;;;;4159806;28;20049;-70
2022/01/22 07:53:35;;;;;;;2.07;0.87;;;28.20;54.90;;;;;;4159824;28;20498;-70
2022/01/22 07:55:57;;;;;;;1.63;0.88;;;28.20;55.60;;;;;;4158791;28;20057;-74
2022/01/22 07:58:20;;;;;;;2.70;0.88;;;28.20;55.40;;;;;;4159083;28;20127;-71
2022/01/22 08:00:42;;;;;;;2.33;0.95;;;28.20;55.60;;;;;;4159216;28;20037;-75
2022/01/22 08:03:06;;;;;;;2.38;1.00;;;28.30;55.80;;;;;;4145148;28;20075;-72
2022/01/22 08:05:29;;;;;;;3.65;1.10;;;28.30;55.90;;;;;;4153783;28;20052;-74
2022/01/22 08:07:51;;;;;;;4.65;0.95;;;28.30;55.90;;;;;;4145433;28;20047;-76
2022/01/22 08:10:14;;;;;;;3.30;1.08;;;28.30;56.00;;;;;;4152966;28;20054;-74
2022/01/22 08:12:41;;;;;;;13.40;1.87;;;28.30;56.10;;;;;;4153237;28;20033;-75
2022/01/22 08:15:07;;;;;;;4.93;1.33;;;28.30;56.10;;;;;;4156328;28;20049;-74
2022/01/22 08:17:30;;;;;;;4.78;1.50;;;28.30;56.40;;;;;;4150450;28;20088;-74
2022/01/22 08:19:53;;;;;;;4.65;1.58;;;28.30;56.50;;;;;;4157281;28;20046;-79
2022/01/22 08:22:16;;;;;;;6.25;1.50;;;28.30;56.50;;;;;;4156006;28;20072;-72
2022/01/22 08:24:38;;;;;;;7.40;1.50;;;28.30;56.40;;;;;;4153234;28;20041;-79
2022/01/22 08:27:33;;;;;;;8.00;1.42;;;28.30;56.30;;;;;;4150580;28;20091;-74
2022/01/22 08:29:46;;;;;;;6.53;1.48;;;28.30;56.40;;;;;;4149337;28;20045;-77
2022/01/22 08:32:27;;;;;;;4.72;1.52;;;28.20;56.70;;;;;;4150834;28;20041;-76
2022/01/22 08:37:30;;;;;;;6.03;1.83;;;28.20;55.90;;;;;;4151658;28;20029;-75
2022/01/22 08:39:52;;;;;;;6.63;1.50;;;28.20;55.90;;;;;;4149433;28;20056;-74
2022/01/22 08:42:15;;;;;;;5.05;1.60;;;28.10;55.80;;;;;;4150491;28;20026;-74
2022/01/22 08:44:40;;;;;;;4.38;1.45;;;28.10;55.80;;;;;;4152600;28;20033;-72
2022/01/22 08:47:03;;;;;;;6.03;1.27;;;28.10;55.80;;;;;;4151074;28;20042;-77
2022/01/22 08:49:25;;;;;;;3.85;1.58;;;28.10;55.80;;;;;;4149998;28;20446;-77
2022/01/22 08:51:48;;;;;;;4.40;1.57;;;28.10;55.80;;;;;;4151324;28;20095;-77
2022/01/22 08:54:11;;;;;;;6.88;1.90;;;28.10;55.80;;;;;;4151930;28;20044;-76
2022/01/22 08:56:33;;;;;;;9.17;1.90;;;28.00;55.90;;;;;;4151798;28;20045;-75
2022/01/22 08:58:56;;;;;;;7.32;2.03;;;28.00;56.20;;;;;;4150784;28;20121;-79
2022/01/22 09:01:19;;;;;;;8.33;1.50;;;28.00;56.20;;;;;;4151922;28;20124;-77
2022/01/22 09:03:42;;;;;;;14.57;2.10;;;28.00;56.50;;;;;;4151911;28;20081;-73
2022/01/22 09:06:06;;;;;;;10.90;1.85;;;28.00;56.90;;;;;;4150926;28;20140;-74
2022/01/22 09:08:29;;;;;;;6.97;1.80;;;28.00;56.90;;;;;;4149687;28;20091;-74
2022/01/22 09:10:52;;;;;;;14.38;1.83;;;28.10;57.00;;;;;;4149722;28;20434;-75
2022/01/22 09:13:15;;;;;;;5.20;1.15;;;28.00;57.00;;;;;;4148614;28;20558;-77
2022/01/22 09:15:38;;;;;;;6.60;1.50;;;28.00;57.20;;;;;;4151870;28;20812;-75
2022/01/22 09:18:01;;;;;;;4.03;1.02;;;28.00;57.40;;;;;;4152598;28;21693;-73
2022/01/22 09:23:00;;;;;;;4.50;1.10;;;28.00;57.70;;;;;;4151318;28;20048;-76
2022/01/22 09:25:23;;;;;;;5.78;1.38;;;28.00;57.80;;;;;;4155200;28;20060;-74
2022/01/22 09:27:45;;;;;;;5.03;2.00;;;28.00;57.40;;;;;;4157085;28;20116;-77
2022/01/22 09:30:08;;;;;;;7.00;1.50;;;28.00;57.00;;;;;;4151827;28;20518;-76
2022/01/22 09:32:31;;;;;;;5.10;1.60;;;28.00;57.20;;;;;;4155735;28;20072;-69
2022/01/22 09:34:53;;;;;;;4.13;1.40;;;27.90;57.50;;;;;;4152384;28;20205;-69
2022/01/22 09:37:15;;;;;;;2.60;1.10;;;28.00;57.80;;;;;;4155254;28;20037;-71
2022/01/22 09:39:38;;;;;;;4.75;1.23;;;27.90;57.80;;;;;;4153023;28;20046;-69
2022/01/22 09:42:00;;;;;;;3.30;1.05;;;28.00;58.50;;;;;;4154754;28;20041;-72
2022/01/22 09:44:23;;;;;;;13.50;2.08;;;27.90;58.20;;;;;;4152937;28;20044;-77
2022/01/22 09:46:47;;;;;;;6.28;1.75;;;27.90;57.90;;;;;;4154964;28;20140;-77
2022/01/22 09:49:11;;;;;;;8.43;1.40;;;27.90;58.20;;;;;;4156948;28;20525;-75
2022/01/22 09:51:33;;;;;;;4.32;1.52;;;27.90;58.00;;;;;;4158840;28;20041;-76
2022/01/22 09:53:55;;;;;;;22.67;3.38;;;27.90;57.90;;;;;;4157860;28;20912;-79
2022/01/22 09:56:21;;;;;;;31.02;3.83;;;27.90;58.20;;;;;;4154327;28;20051;-78
2022/01/22 09:58:44;;;;;;;45.95;3.60;;;27.90;58.50;;;;;;4165497;28;20044;-75
2022/01/22 10:01:25;;;;;;;18.35;2.53;;;27.90;58.80;;;;;;4166677;28;20194;-75
2022/01/22 10:03:48;;;;;;;14.73;2.30;;;27.90;58.50;;;;;;4165911;28;20079;-74
2022/01/22 10:06:19;;;;;;;27.00;2.80;;;27.90;58.10;;;;;;4156472;28;20068;-73
2022/01/22 10:08:42;;;;;;;9.10;1.75;;;27.90;58.60;;;;;;4155634;28;20053;-74
2022/01/22 10:11:15;;;;;;;7.40;1.23;;;27.90;58.70;;;;;;4151321;28;20060;-74
2022/01/22 10:13:53;;;;;;;14.10;1.95;;;27.90;58.40;;;;;;4153487;28;20033;-73
2022/01/22 10:16:25;;;;;;;9.00;1.45;;;27.90;58.60;;;;;;4152784;28;20471;-70
2022/01/22 10:19:34;;;;;;;9.02;1.70;;;27.80;58.30;;;;;;4153305;28;20128;-73
2022/01/22 10:22:03;;;;;;;4.75;1.30;;;27.80;58.50;;;;;;4151439;28;20553;-71
2022/01/22 10:24:43;;;;;;;7.18;1.40;;;27.80;58.40;;;;;;4156975;28;20480;-71
2022/01/22 10:27:37;;;;;;;5.18;1.27;;;27.80;58.40;;;;;;4141957;28;20545;-75
2022/01/22 10:30:13;;;;;;;4.93;1.58;;;27.80;58.30;;;;;;4148707;28;20037;-74
2022/01/22 10:36:08;;;;;;;5.55;1.30;;;27.80;58.20;;;;;;4147067;28;20163;-73
2022/01/22 10:38:46;;;;;;;7.07;1.25;;;27.80;58.30;;;;;;4139620;28;20095;-74
2022/01/22 10:41:15;;;;;;;3.08;1.33;;;27.80;58.20;;;;;;4155221;28;20068;-71
2022/01/22 10:43:59;;;;;;;5.40;1.20;;;27.70;58.20;;;;;;4153106;28;20039;-72
2022/01/22 10:46:43;;;;;;;2.92;0.93;;;27.70;58.20;;;;;;4148579;28;20041;-73
2022/01/22 10:49:07;;;;;;;;;;;27.70;58.20;;;;;;4150507;28;20056;-70
2022/01/22 10:51:34;;;;;;;2.25;0.90;;;27.70;58.10;;;;;;4154955;28;19932;-70
2022/01/22 10:53:59;;;;;;;3.78;0.80;;;27.70;58.70;;;;;;4151010;28;20073;-69
2022/01/22 10:56:24;;;;;;;3.97;1.20;;;27.70;58.30;;;;;;4154040;28;20183;-69
2022/01/22 10:58:59;;;;;;;3.67;1.10;;;27.70;58.20;;;;;;4153755;28;20478;-69
2022/01/22 11:01:42;;;;;;;5.20;1.25;;;27.70;58.10;;;;;;4141693;28;20118;-69
2022/01/22 11:04:09;;;;;;;2.42;0.93;;;27.70;58.00;;;;;;4153949;28;20029;-69
2022/01/22 11:06:32;;;;;;;2.22;0.98;;;27.60;57.90;;;;;;4140973;28;20434;-68
2022/01/22 11:08:55;;;;;;;2.28;1.00;;;27.60;57.90;;;;;;4144427;28;20121;-68
2022/01/22 11:11:22;;;;;;;2.33;1.00;;;27.60;58.00;;;;;;4157426;28;20052;-68
2022/01/22 11:13:51;;;;;;;2.28;1.10;;;27.60;58.10;;;;;;4151225;28;20595;-72
2022/01/22 11:16:16;;;;;;;7.05;1.20;;;27.60;58.00;;;;;;4153051;28;20118;-68
2022/01/22 11:18:56;;;;;;;5.13;1.13;;;27.50;58.00;;;;;;4154209;28;20033;-70
2022/01/22 11:21:19;;;;;;;5.00;1.25;;;27.60;58.10;;;;;;4140258;28;20037;-69
2022/01/22 11:23:43;;;;;;;1.70;0.90;;;27.60;57.90;;;;;;4148977;28;20029;-69
2022/01/22 11:26:07;;;;;;;5.53;1.02;;;27.50;57.90;;;;;;4153492;28;20034;-69
2022/01/22 11:28:30;;;;;;;5.07;1.15;;;27.60;58.00;;;;;;4156028;28;20045;-70
2022/01/22 11:31:00;;;;;;;4.10;1.10;;;27.50;57.80;;;;;;4154827;28;20712;-71
2022/01/22 11:33:24;;;;;;;3.38;0.88;;;27.50;57.90;;;;;;4154712;28;20041;-69
2022/01/22 11:35:56;;;;;;;2.85;1.00;;;27.50;57.80;;;;;;4157036;28;20056;-70
2022/01/22 11:38:31;;;;;;;3.50;1.10;;;27.50;58.10;;;;;;4157045;28;20360;-69
2022/01/22 11:41:23;;;;;;;7.70;1.27;;;27.50;58.40;;;;;;4158788;28;20042;-68
2022/01/22 11:43:52;;;;;;;4.18;1.05;;;27.50;58.30;;;;;;4152001;28;20077;-70
2022/01/22 11:46:29;;;;;;;3.05;0.93;;;27.50;58.40;;;;;;4152537;28;20037;-72
2022/01/22 11:49:29;;;;;;;2.38;1.00;;;27.50;58.20;;;;;;4156266;28;20041;-68
2022/01/22 11:51:54;;;;;;;4.88;1.25;;;27.50;58.00;;;;;;4155855;28;20413;-68
2022/01/22 11:54:19;;;;;;;4.20;1.13;;;27.50;58.00;;;;;;4154641;28;20099;-67
2022/01/22 11:56:53;;;;;;;5.32;1.42;;;27.40;57.90;;;;;;4150187;28;20455;-68
2022/01/22 11:59:18;;;;;;;3.38;1.00;;;27.40;58.00;;;;;;4153241;28;20073;-67
2022/01/22 12:01:53;;;;;;;3.72;1.10;;;27.40;57.90;;;;;;4151673;28;20056;-67
2022/01/22 12:04:15;;;;;;;7.32;0.93;;;27.40;57.90;;;;;;4153464;28;20065;-68
2022/01/22 12:07:07;;;;;;;5.85;1.40;;;27.40;57.70;;;;;;4154444;28;20049;-68
2022/01/22 12:09:51;;;;;;;1.83;0.63;;;27.40;57.70;;;;;;4151588;28;20132;-67
2022/01/22 12:15:15;;;;;;;2.20;0.98;;;27.40;57.80;;;;;;4157221;28;20045;-68
2022/01/22 12:17:52;;;;;;;6.22;1.10;;;27.40;57.80;;;;;;4151857;28;20732;-68
2022/01/22 12:23:00;;;;;;;10.57;1.25;;;27.40;57.70;;;;;;4150763;28;20042;-68
2022/01/22 12:25:22;;;;;;;3.58;0.82;;;27.30;57.70;;;;;;4141304;28;20042;-68
2022/01/22 12:27:52;;;;;;;3.15;0.77;;;27.30;57.70;;;;;;4157771;28;20041;-67
2022/01/22 12:30:18;;;;;;;2.55;1.15;;;27.30;57.70;;;;;;4149278;28;20038;-68
2022/01/22 12:32:48;;;;;;;5.40;1.05;;;27.30;57.70;;;;;;4156674;28;20432;-67
2022/01/22 12:35:15;;;;;;;1.60;1.08;;;27.30;57.60;;;;;;4149009;28;20108;-67
2022/01/22 12:37:41;;;;;;;5.90;1.40;;;27.30;57.60;;;;;;4150815;28;20072;-68
2022/01/22 12:40:06;;;;;;;3.45;1.10;;;27.30;57.60;;;;;;4150144;28;20134;-68
2022/01/22 12:42:51;;;;;;;4.85;1.20;;;27.30;57.60;;;;;;4152439;28;20144;-69
2022/01/22 12:45:14;;;;;;;4.60;1.00;;;27.30;57.60;;;;;;4150397;28;20034;-69
2022/01/22 12:47:37;;;;;;;2.05;0.95;;;27.30;57.50;;;;;;4156243;28;20461;-83
2022/01/22 12:50:07;;;;;;;1.30;0.50;;;27.30;57.50;;;;;;4155537;28;20041;-83
2022/01/22 12:52:30;;;;;;;2.42;0.70;;;27.20;57.70;;;;;;4158930;28;20463;-82
2022/01/22 12:54:57;;;;;;;3.25;0.93;;;27.30;57.80;;;;;;4139458;28;20148;-78
2022/01/22 12:57:20;;;;;;;6.40;0.95;;;27.20;58.20;;;;;;4154084;28;20080;-80
2022/01/22 13:00:15;;;;;;;5.75;1.13;;;27.20;58.40;;;;;;4152954;28;20089;-77
2022/01/22 13:02:37;;;;;;;3.33;0.95;;;27.20;58.50;;;;;;4153035;28;20069;-83
2022/01/22 13:05:01;;;;;;;5.70;0.90;;;27.20;58.60;;;;;;4155410;28;20050;-85
2022/01/22 13:07:25;;;;;;;2.38;1.15;;;27.20;58.00;;;;;;4153299;28;20041;-87
2022/01/22 13:09:49;;;;;;;4.28;1.23;;;27.20;58.40;;;;;;4151204;28;20079;-83
2022/01/22 13:12:12;;;;;;;23.10;1.98;;;27.20;58.60;;;;;;4152799;28;20078;-86
2022/01/22 13:14:35;;;;;;;6.87;1.63;;;27.20;58.80;;;;;;4156983;28;20037;-84
2022/01/22 13:16:58;;;;;;;9.18;2.00;;;27.20;59.10;;;;;;4155427;28;20571;-85
2022/01/22 13:19:22;;;;;;;10.00;1.90;;;27.20;58.90;;;;;;4157905;28;20033;-86
2022/01/22 13:21:55;;;;;;;8.75;1.58;;;27.10;59.10;;;;;;4152392;28;20073;-83
2022/01/22 13:24:22;;;;;;;6.18;1.30;;;27.10;59.10;;;;;;4145298;28;20033;-82
2022/01/22 13:26:58;;;;;;;3.00;1.05;;;27.10;59.10;;;;;;4157748;28;20068;-85
2022/01/22 13:29:38;;;;;;;2.92;0.90;;;27.10;59.30;;;;;;4159638;28;20037;-81
2022/01/22 13:32:28;;;;;;;5.82;1.27;;;27.10;59.30;;;;;;4157696;28;20095;-84
2022/01/22 13:35:54;;;;;;;5.65;1.33;;;27.10;59.20;;;;;;4156078;28;20060;-88
2022/01/22 13:38:27;;;;;;;4.78;1.10;;;27.00;59.10;;;;;;4160608;28;20116;-90
2022/01/22 13:49:04;;;;;;;2.10;0.75;;;26.90;59.50;;;;;;4161521;28;20466;-80
2022/01/22 13:51:28;;;;;;;3.72;1.25;;;26.90;59.50;;;;;;4156965;28;20095;-80
2022/01/22 13:53:50;;;;;;;2.60;1.10;;;26.90;59.60;;;;;;4162844;28;20096;-88
2022/01/22 13:56:15;;;;;;;3.63;1.08;;;26.90;59.40;;;;;;4163642;28;20426;-82
2022/01/22 13:58:39;;;;;;;2.78;0.90;;;26.90;59.40;;;;;;4161936;28;20045;-81
2022/01/22 14:01:27;;;;;;;1.90;1.10;;;26.90;59.50;;;;;;4161731;28;20063;-79
2022/01/22 14:04:09;;;;;;;3.10;0.95;;;26.80;59.40;;;;;;4156325;28;20048;-81
2022/01/22 14:06:35;;;;;;;2.55;0.70;;;26.80;60.20;;;;;;4164124;28;20057;-82
2022/01/22 14:08:57;;;;;;;3.45;1.13;;;26.80;59.40;;;;;;4162425;28;20048;-82
2022/01/22 14:11:19;;;;;;;1.70;0.90;;;26.80;59.40;;;;;;4162651;28;20029;-85
2022/01/22 14:13:42;;;;;;;1.35;0.70;;;26.70;59.30;;;;;;4158830;28;20037;-87
2022/01/22 14:16:21;;;;;;;1.98;0.82;;;26.70;59.40;;;;;;4162973;28;20152;-83
2022/01/22 14:18:45;;;;;;;2.63;1.15;;;26.70;59.50;;;;;;4159482;28;20439;-82
2022/01/22 14:21:08;;;;;;;1.65;0.90;;;26.70;59.50;;;;;;4157002;28;20147;-86
2022/01/22 14:23:33;;;;;;;2.67;0.90;;;26.70;59.40;;;;;;4156132;28;20041;-79